Time;durP1;ratioP1;P1;durP2;ratioP2;P2;SDS_P1;SDS_P2;PMS_P1;PMS_P2;Temp;Humidity;BMP_temperature;BMP_pressure;BME280_temperature;BME280_humidity;BME280_pressure;Samples;Min_cycle;Max_cycle;Signal;HPM_P1;HPM_P2
2023/02/03 00:01:26;;;;;;;19.60;2.65;;;;;;;9.65;100.00;102571.31;5027005;28;20040;-69
2023/02/03 00:03:52;;;;;;;14.98;3.38;;;;;;;9.63;100.00;102576.56;5026920;28;20061;-69
2023/02/03 00:06:17;;;;;;;18.50;3.40;;;;;;;9.61;100.00;102592.34;5028062;28;20430;-69
2023/02/03 00:08:43;;;;;;;14.07;2.55;;;;;;;9.66;100.00;102594.13;5026597;28;20034;-61
2023/02/03 00:11:08;;;;;;;15.60;3.70;;;;;;;9.62;100.00;102580.09;5010137;28;20028;-69
2023/02/03 00:13:34;;;;;;;13.77;2.78;;;;;;;9.60;100.00;102576.56;5026749;28;20025;-71
2023/02/03 00:16:00;;;;;;;11.70;3.35;;;;;;;9.59;100.00;102565.19;5008934;28;20715;-71
2023/02/03 00:18:26;;;;;;;14.02;2.80;;;;;;;9.52;100.00;102573.09;5027558;28;20030;-69
2023/02/03 00:20:52;;;;;;;16.25;3.13;;;;;;;9.53;100.00;102566.94;5027046;28;20511;-63
2023/02/03 00:23:17;;;;;;;16.00;2.85;;;;;;;9.53;100.00;102577.47;5026957;28;20519;-67
2023/02/03 00:25:42;;;;;;;16.58;3.03;;;;;;;9.34;100.00;102577.50;5026977;28;20038;-66
2023/02/03 00:28:08;;;;;;;15.43;3.17;;;;;;;9.55;100.00;102581.88;4989007;28;20029;-67
2023/02/03 00:30:34;;;;;;;18.50;3.60;;;;;;;9.53;100.00;102591.50;5006401;28;20046;-66
2023/02/03 00:33:00;;;;;;;13.93;2.83;;;;;;;9.57;100.00;102573.97;5007327;28;20029;-69
2023/02/03 00:35:26;;;;;;;19.48;3.55;;;;;;;9.61;100.00;102581.84;5007986;28;20022;-67
2023/02/03 00:37:53;;;;;;;24.92;3.03;;;;;;;9.61;100.00;102581.84;5008127;28;20770;-63
2023/02/03 00:40:19;;;;;;;12.30;2.72;;;;;;;9.75;100.00;102585.34;5015352;28;20040;-68
2023/02/03 00:42:45;;;;;;;25.35;4.72;;;;;;;9.74;100.00;102600.25;5026315;28;20029;-68
2023/02/03 00:45:10;;;;;;;14.38;2.50;;;;;;;9.75;100.00;102591.47;5026654;28;20041;-66
2023/02/03 00:47:35;;;;;;;14.60;2.75;;;;;;;9.75;100.00;102596.72;5027527;28;20038;-67
2023/02/03 00:50:01;;;;;;;13.63;2.72;;;;;;;9.80;100.00;102605.50;5027697;28;20095;-69
2023/02/03 00:52:26;;;;;;;8.65;2.50;;;;;;;9.86;100.00;102587.06;5019499;28;20048;-67
2023/02/03 00:54:51;;;;;;;15.40;2.85;;;;;;;9.71;100.00;102574.81;5007656;28;20050;-64
2023/02/03 00:57:17;;;;;;;12.13;2.55;;;;;;;9.72;100.00;102580.94;5006914;28;20439;-67
2023/02/03 00:59:42;;;;;;;18.58;2.83;;;;;;;9.67;100.00;102572.19;5006537;28;20029;-67
2023/02/03 01:02:07;;;;;;;19.73;2.92;;;;;;;9.72;100.00;102571.28;5007553;28;20116;-68
2023/02/03 01:04:33;;;;;;;22.30;3.60;;;;;;;9.66;100.00;102576.56;5014369;28;20113;-59
2023/02/03 01:06:58;;;;;;;18.77;3.10;;;;;;;9.70;100.00;102590.59;5027089;28;20029;-67
2023/02/03 01:09:24;;;;;;;23.52;3.42;;;;;;;9.61;100.00;102566.03;5026054;28;20025;-73
2023/02/03 01:11:50;;;;;;;13.18;2.70;;;;;;;9.64;100.00;102567.81;5025501;28;20040;-69
2023/02/03 01:14:15;;;;;;;13.90;2.78;;;;;;;9.68;100.00;102584.47;5027005;28;20022;-71
2023/02/03 01:16:41;;;;;;;13.48;2.80;;;;;;;9.71;100.00;102580.06;5027012;28;20439;-68
2023/02/03 01:19:06;;;;;;;18.13;3.38;;;;;;;9.62;100.00;102564.28;5027181;28;20044;-70
2023/02/03 01:21:31;;;;;;;14.55;2.42;;;;;;;9.76;100.00;102577.44;5027303;28;20080;-70
2023/02/03 01:23:57;;;;;;;12.98;2.33;;;;;;;9.70;100.00;102590.59;5027470;28;20087;-64
2023/02/03 01:26:23;;;;;;;16.80;3.10;;;;;;;9.68;100.00;102595.88;5027650;28;20029;-66
2023/02/03 01:28:56;;;;;;;10.63;2.70;;;;;;;9.77;100.00;102583.56;5030998;28;20523;-68
2023/02/03 01:31:34;;;;;;;9.18;1.90;;;;;;;9.85;100.00;102555.47;5030672;28;20475;-58
2023/02/03 01:33:59;;;;;;;10.88;2.58;;;;;;;9.78;100.00;102537.94;5030929;28;20509;-71
2023/02/03 01:36:26;;;;;;;13.43;2.03;;;;;;;9.76;100.00;102524.78;5030058;28;20101;-64
2023/02/03 01:38:52;;;;;;;20.45;2.97;;;;;;;9.88;100.00;102534.41;5031300;28;20034;-65
2023/02/03 01:41:25;;;;;;;10.77;2.03;;;;;;;10.01;100.00;102540.47;5030710;28;20032;-65
2023/02/03 01:43:55;;;;;;;13.13;2.33;;;;;;;9.90;100.00;102558.94;5031570;28;20112;-62
2023/02/03 01:46:32;;;;;;;9.40;2.22;;;;;;;9.97;100.00;102558.03;5031223;28;20053;-62
2023/02/03 01:49:17;;;;;;;8.93;2.10;;;;;;;10.01;100.00;102551.03;5030220;28;20152;-71
2023/02/03 01:51:43;;;;;;;6.75;1.98;;;;;;;10.07;100.00;102560.66;5012926;28;20055;-68
2023/02/03 01:54:11;;;;;;;7.75;1.98;;;;;;;10.06;100.00;102575.56;5012081;28;20071;-67
2023/02/03 01:56:39;;;;;;;10.88;2.20;;;;;;;10.04;100.00;102555.38;5011628;28;20032;-71
2023/02/03 01:59:05;;;;;;;10.30;1.45;;;;;;;10.04;100.00;102558.03;5012647;28;20116;-70
2023/02/03 02:01:31;;;;;;;9.25;2.15;;;;;;;10.19;100.00;102547.44;5029138;28;20029;-63
2023/02/03 02:03:58;;;;;;;9.45;1.40;;;;;;;10.17;100.00;102537.78;5030708;28;20037;-67
2023/02/03 02:06:24;;;;;;;8.00;1.42;;;;;;;10.20;100.00;102525.47;5029802;28;20060;-68
2023/02/03 02:08:51;;;;;;;8.38;1.42;;;;;;;10.23;100.00;102529.84;5012990;28;20048;-67
2023/02/03 02:11:19;;;;;;;12.02;1.60;;;;;;;10.20;100.00;102540.38;5012894;28;20060;-65
2023/02/03 02:13:44;;;;;;;12.75;1.60;;;;;;;10.22;100.00;102533.38;5029332;28;20423;-70
2023/02/03 02:16:16;;;;;;;9.15;1.80;;;;;;;10.29;100.00;102528.94;5012221;28;20026;-67
2023/02/03 02:18:50;;;;;;;7.13;1.77;;;;;;;10.26;100.00;102506.09;5028724;28;20033;-65
2023/02/03 02:21:21;;;;;;;4.60;1.23;;;;;;;10.20;100.00;102511.41;5108211;22;20745;-66
2023/02/03 02:24:17;;;;;;;9.45;1.73;;;;;;;10.29;100.00;102503.47;5050152;28;20037;-69
2023/02/03 02:27:01;;;;;;;4.05;1.35;;;;;;;10.33;100.00;102505.19;5029019;28;20578;-71
2023/02/03 02:29:49;;;;;;;10.45;1.92;;;;;;;10.45;100.00;102508.66;5029357;28;20045;-67
2023/02/03 02:32:40;;;;;;;8.85;1.55;;;;;;;10.38;100.00;102525.38;5029027;28;20037;-65
2023/02/03 02:35:42;;;;;;;6.78;1.83;;;;;;;10.42;100.00;102521.84;5028946;28;20124;-70
2023/02/03 02:38:31;;;;;;;8.90;1.85;;;;;;;10.39;100.00;102532.41;5027790;28;20033;-68
2023/02/03 02:41:06;;;;;;;10.45;1.60;;;;;;;10.41;100.00;102534.13;5031542;28;20029;-66
2023/02/03 02:43:46;;;;;;;9.63;1.85;;;;;;;10.44;100.00;102528.84;5048686;28;20107;-65
2023/02/03 02:46:27;;;;;;;5.35;1.77;;;;;;;10.33;100.00;102526.25;5031271;28;20045;-70
2023/02/03 02:49:05;;;;;;;7.45;1.88;;;;;;;10.41;100.00;102517.47;5031792;28;20032;-66
2023/02/03 02:51:32;;;;;;;9.02;1.70;;;;;;;10.33;100.00;102517.50;5030488;28;20063;-66
2023/02/03 02:54:01;;;;;;;6.72;1.63;;;;;;;10.31;100.00;102533.31;5048898;28;20467;-68
2023/02/03 02:56:28;;;;;;;5.95;2.13;;;;;;;10.29;100.00;102521.91;5031027;28;20044;-69
2023/02/03 02:58:54;;;;;;;9.95;2.80;;;;;;;10.27;100.00;102517.53;5049006;28;20372;-69
2023/02/03 03:01:19;;;;;;;8.98;2.05;;;;;;;10.30;100.00;102507.84;5015352;28;20029;-69
2023/02/03 03:03:45;;;;;;;9.77;1.77;;;;;;;10.33;100.00;102497.28;5048637;28;20029;-70
2023/02/03 03:06:18;;;;;;;7.72;1.95;;;;;;;10.35;100.00;102486.72;5049386;28;20021;-69
2023/02/03 03:09:07;;;;;;;10.93;2.15;;;;;;;10.26;100.00;102490.31;5049094;28;20471;-69
2023/02/03 03:11:37;;;;;;;10.88;1.67;;;;;;;10.35;100.00;102489.38;5047608;28;20070;-69
2023/02/03 03:14:04;;;;;;;6.57;1.70;;;;;;;10.23;100.00;102485.94;5030560;28;20619;-69
2023/02/03 03:16:32;;;;;;;5.45;1.38;;;;;;;10.40;100.00;102503.41;5030276;28;20029;-70
2023/02/03 03:19:05;;;;;;;8.57;1.70;;;;;;;10.35;100.00;102487.63;5031389;28;20134;-71
2023/02/03 03:21:36;;;;;;;13.32;1.77;;;;;;;10.35;100.00;102498.16;5029740;28;20087;-68
2023/02/03 03:24:06;;;;;;;5.53;1.40;;;;;;;10.44;100.00;102506.88;5031268;28;20033;-69
2023/02/03 03:26:35;;;;;;;6.45;1.25;;;;;;;10.41;100.00;102515.69;5029415;28;20025;-63
2023/02/03 03:29:12;;;;;;;11.88;1.77;;;;;;;10.38;100.00;102509.56;5048575;28;20726;-69
2023/02/03 03:31:38;;;;;;;6.85;1.52;;;;;;;10.28;100.00;102504.34;5014069;28;20059;-69
2023/02/03 03:34:03;;;;;;;4.70;1.15;;;;;;;10.31;100.00;102506.97;5048019;28;20024;-67
2023/02/03 03:36:34;;;;;;;5.97;1.52;;;;;;;10.36;100.00;102506.94;5048632;28;20068;-66
2023/02/03 03:39:04;;;;;;;12.77;1.73;;;;;;;10.30;100.00;102523.63;5030239;28;20080;-67
2023/02/03 03:41:57;;;;;;;7.38;1.38;;;;;;;10.32;100.00;102524.53;5028925;28;20036;-66
2023/02/03 03:44:28;;;;;;;5.93;2.08;;;;;;;10.38;100.00;102506.94;5048559;28;20037;-70
2023/02/03 03:47:08;;;;;;;5.55;1.40;;;;;;;10.29;100.00;102514.00;5034452;28;20028;-58
2023/02/03 03:49:33;;;;;;;;;;;;;;;10.27;100.00;102515.78;5010723;28;20112;-68
2023/02/03 03:52:03;;;;;;;10.13;1.67;;;;;;;10.31;100.00;102533.31;5009989;28;20012;-63
2023/02/03 03:54:29;;;;;;;13.82;2.13;;;;;;;10.33;100.00;102515.72;5010807;28;20025;-69
2023/02/03 03:57:16;;;;;;;5.18;1.92;;;;;;;10.34;100.00;102517.50;5010170;28;20026;-67
2023/02/03 03:59:45;;;;;;;6.28;1.80;;;;;;;10.25;100.00;102541.25;5045404;28;20144;-68
2023/02/03 04:02:11;;;;;;;11.90;2.08;;;;;;;10.22;100.00;102513.16;5047514;28;20383;-67
2023/02/03 04:04:38;;;;;;;6.95;1.30;;;;;;;10.19;100.00;102522.84;5029462;28;20047;-69
2023/02/03 04:07:04;;;;;;;10.77;2.13;;;;;;;10.25;100.00;102512.28;5030638;28;20029;-69
2023/02/03 04:09:29;;;;;;;7.93;1.85;;;;;;;10.27;100.00;102518.41;5013027;28;20144;-67
2023/02/03 04:12:00;;;;;;;9.30;1.52;;;;;;;10.23;100.00;102521.94;5029350;28;20064;-67
2023/02/03 04:14:27;;;;;;;18.85;2.20;;;;;;;10.34;100.00;102521.88;5047265;28;20112;-68
2023/02/03 04:16:52;;;;;;;6.53;1.30;;;;;;;10.16;100.00;102512.31;5047717;28;20429;-62
2023/02/03 04:19:17;;;;;;;5.72;1.50;;;;;;;10.17;100.00;102541.28;5047931;28;20087;-68
2023/02/03 04:21:43;;;;;;;12.50;1.73;;;;;;;10.18;100.00;102544.81;5046915;28;20477;-68
2023/02/03 04:24:08;;;;;;;6.85;1.48;;;;;;;10.24;100.00;102521.06;5047365;28;20064;-69
2023/02/03 04:26:34;;;;;;;12.45;2.05;;;;;;;10.21;100.00;102516.66;5046992;28;20626;-60
2023/02/03 04:28:59;;;;;;;13.02;1.70;;;;;;;10.19;100.00;102522.84;5047586;28;20021;-69
2023/02/03 04:31:24;;;;;;;10.60;1.98;;;;;;;10.27;100.00;102567.59;5047265;28;20070;-70
2023/02/03 04:33:50;;;;;;;10.88;2.05;;;;;;;10.15;100.00;102522.00;5047575;28;20518;-69
2023/02/03 04:36:15;;;;;;;9.88;1.60;;;;;;;10.10;100.00;102543.09;5047523;28;20087;-66
2023/02/03 04:38:40;;;;;;;11.63;1.67;;;;;;;10.22;100.00;102513.16;5047620;28;20025;-69
2023/02/03 04:41:06;;;;;;;18.42;2.20;;;;;;;10.29;100.00;102524.53;5046897;28;20036;-66
2023/02/03 04:43:31;;;;;;;10.70;2.15;;;;;;;10.22;100.00;102518.44;5045593;28;20050;-67
2023/02/03 04:45:59;;;;;;;11.32;2.08;;;;;;;10.21;100.00;102508.75;5047070;28;20024;-62
2023/02/03 04:48:24;;;;;;;7.43;1.60;;;;;;;10.17;100.00;102528.13;5047052;28;20478;-68
2023/02/03 04:50:50;;;;;;;5.80;1.48;;;;;;;10.24;100.00;102550.03;5047868;28;20021;-71
2023/02/03 04:53:15;;;;;;;9.25;2.38;;;;;;;10.18;100.00;102553.56;5047394;28;20443;-68
2023/02/03 04:55:40;;;;;;;8.18;2.15;;;;;;;10.18;100.00;102529.00;5046334;28;20515;-68
2023/02/03 04:58:06;;;;;;;13.80;2.25;;;;;;;10.26;100.00;102537.72;5046952;28;20494;-68
2023/02/03 05:00:31;;;;;;;8.82;1.80;;;;;;;10.23;100.00;102529.84;5045949;28;20522;-68
2023/02/03 05:02:56;;;;;;;10.32;2.00;;;;;;;10.16;100.00;102555.34;5050520;28;20521;-73
2023/02/03 05:05:22;;;;;;;8.07;1.63;;;;;;;10.23;100.00;102548.28;5051587;28;20029;-65
2023/02/03 05:07:47;;;;;;;13.05;2.33;;;;;;;10.27;100.00;102514.91;5051390;28;20509;-66
2023/02/03 05:10:12;;;;;;;12.23;2.72;;;;;;;10.17;100.00;102525.47;5051285;28;20524;-68
2023/02/03 05:12:38;;;;;;;11.43;2.33;;;;;;;10.14;100.00;102514.09;5049983;28;20459;-69
2023/02/03 05:15:03;;;;;;;10.25;1.98;;;;;;;10.05;100.00;102534.31;5051123;28;20025;-69
2023/02/03 05:17:29;;;;;;;10.05;1.95;;;;;;;10.10;100.00;102536.94;5050887;28;20029;-64
2023/02/03 05:19:54;;;;;;;11.43;2.65;;;;;;;10.06;100.00;102500.97;5050030;28;20064;-66
2023/02/03 05:22:20;;;;;;;13.07;1.92;;;;;;;10.08;100.00;102542.19;5050078;28;20129;-66
2023/02/03 05:24:45;;;;;;;7.22;1.70;;;;;;;10.06;100.00;102543.97;5036061;28;20132;-68
2023/02/03 05:27:10;;;;;;;16.85;2.50;;;;;;;10.04;100.00;102537.84;5046165;28;20894;-67
2023/02/03 05:29:36;;;;;;;13.85;2.90;;;;;;;10.03;100.00;102557.16;5049869;28;20043;-66
2023/02/03 05:32:02;;;;;;;11.57;2.22;;;;;;;9.92;100.00;102549.28;5046850;28;20017;-72
2023/02/03 05:34:27;;;;;;;10.35;1.67;;;;;;;10.01;100.00;102540.47;5042194;28;20048;-68
2023/02/03 05:36:52;;;;;;;5.90;1.67;;;;;;;9.97;100.00;102534.34;5036144;28;20060;-62
2023/02/03 05:39:18;;;;;;;11.20;2.53;;;;;;;9.91;100.00;102550.19;5047873;28;20025;-69
2023/02/03 05:41:52;;;;;;;12.68;3.20;;;;;;;9.92;100.00;102535.25;5049279;28;20037;-70
2023/02/03 05:44:25;;;;;;;12.05;2.35;;;;;;;9.91;100.00;102555.47;5050737;28;20061;-72
2023/02/03 05:46:55;;;;;;;9.27;1.83;;;;;;;9.88;100.00;102517.72;5050089;28;20043;-68
2023/02/03 05:49:24;;;;;;;16.33;2.05;;;;;;;9.83;100.00;102523.88;5050718;28;20383;-70
2023/02/03 05:51:51;;;;;;;14.25;2.03;;;;;;;9.84;100.00;102512.47;5050583;28;20043;-69
2023/02/03 05:54:16;;;;;;;12.27;2.00;;;;;;;9.83;100.00;102518.63;5049928;28;20029;-68
2023/02/03 05:56:41;;;;;;;12.77;2.45;;;;;;;9.75;100.00;102533.53;5048828;28;20047;-68
2023/02/03 05:59:07;;;;;;;15.57;2.80;;;;;;;9.83;100.00;102531.78;5050027;28;20036;-63
2023/02/03 06:01:33;;;;;;;18.45;3.13;;;;;;;9.84;100.00;102528.25;5049198;28;20029;-66
2023/02/03 06:03:59;;;;;;;14.02;2.05;;;;;;;9.75;100.00;102527.41;5045610;28;20036;-67
2023/02/03 06:06:26;;;;;;;16.42;2.30;;;;;;;9.82;100.00;102537.06;5049452;28;20025;-70
2023/02/03 06:08:55;;;;;;;12.20;2.40;;;;;;;9.91;100.00;102539.66;5049288;28;20025;-63
2023/02/03 06:11:23;;;;;;;15.25;2.35;;;;;;;9.86;100.00;102546.69;5049092;28;20036;-71
2023/02/03 06:13:48;;;;;;;9.63;2.03;;;;;;;9.80;100.00;102546.69;5030958;28;20051;-67
2023/02/03 06:16:13;;;;;;;10.07;2.00;;;;;;;9.73;100.00;102535.31;5049064;28;20033;-69
2023/02/03 06:18:39;;;;;;;13.13;2.17;;;;;;;9.88;100.00;102546.69;5031328;28;20016;-60
2023/02/03 06:21:04;;;;;;;13.40;2.22;;;;;;;9.69;100.00;102555.50;5049487;28;20455;-68
2023/02/03 06:23:30;;;;;;;14.27;2.70;;;;;;;9.73;100.00;102530.91;5048600;28;20045;-69
2023/02/03 06:25:55;;;;;;;18.30;2.83;;;;;;;9.54;100.00;102550.28;5045310;28;20056;-70
2023/02/03 06:28:21;;;;;;;15.93;2.25;;;;;;;9.65;100.00;102542.34;5049122;28;20056;-70
2023/02/03 06:30:49;;;;;;;13.30;2.40;;;;;;;9.65;100.00;102526.56;5049025;28;20028;-71
2023/02/03 06:33:15;;;;;;;19.10;3.05;;;;;;;9.62;100.00;102548.50;5049005;28;20454;-71
2023/02/03 06:35:40;;;;;;;14.88;2.38;;;;;;;9.43;100.00;102540.66;5048172;28;20024;-67
2023/02/03 06:38:05;;;;;;;11.20;2.28;;;;;;;9.60;100.00;102540.59;5048488;28;20525;-70
2023/02/03 06:40:31;;;;;;;22.35;2.80;;;;;;;9.53;100.00;102554.66;5048122;28;20463;-67
2023/02/03 06:42:56;;;;;;;15.40;2.58;;;;;;;9.49;100.00;102531.88;5048510;28;20491;-70
2023/02/03 06:45:23;;;;;;;16.95;2.40;;;;;;;9.66;100.00;102538.84;5049418;28;20371;-60
2023/02/03 06:47:49;;;;;;;13.32;2.25;;;;;;;9.65;100.00;102568.66;5049565;28;20386;-66
2023/02/03 06:50:15;;;;;;;20.70;3.25;;;;;;;9.69;100.00;102550.25;5049224;28;20029;-65
2023/02/03 06:52:40;;;;;;;12.30;2.53;;;;;;;9.73;100.00;102574.81;5048481;28;20029;-69
2023/02/03 06:55:06;;;;;;;9.73;2.03;;;;;;;9.79;100.00;102587.06;5042762;28;20423;-69
2023/02/03 06:57:32;;;;;;;10.98;2.25;;;;;;;9.68;100.00;102589.72;5036139;28;20028;-70
2023/02/03 06:59:57;;;;;;;26.13;3.13;;;;;;;9.80;100.00;102600.25;5029987;28;20113;-71
2023/02/03 07:02:23;;;;;;;17.38;2.58;;;;;;;9.83;100.00;102594.97;5028955;28;20108;-67
2023/02/03 07:04:48;;;;;;;7.10;2.20;;;;;;;9.79;100.00;102587.97;5030986;28;20039;-68
2023/02/03 07:07:13;;;;;;;14.93;2.58;;;;;;;9.82;100.00;102582.66;5028682;28;20036;-71
2023/02/03 07:09:39;;;;;;;15.05;2.80;;;;;;;9.90;100.00;102581.78;5027258;28;20392;-71
2023/02/03 07:12:05;;;;;;;15.45;2.75;;;;;;;9.80;100.00;102605.50;5027377;28;20112;-69
2023/02/03 07:14:31;;;;;;;14.65;2.47;;;;;;;9.88;100.00;102610.75;5028669;28;20112;-72
2023/02/03 07:16:56;;;;;;;18.25;2.83;;;;;;;9.88;100.00;102612.50;5028844;28;20032;-67
2023/02/03 07:19:21;;;;;;;18.05;2.42;;;;;;;9.90;100.00;102597.59;5048645;28;20115;-65
2023/02/03 07:21:47;;;;;;;12.75;2.40;;;;;;;9.84;100.00;102625.66;5048450;28;20132;-67
2023/02/03 07:24:12;;;;;;;12.25;2.50;;;;;;;9.93;100.00;102648.47;5047308;28;20178;-68
2023/02/03 07:26:38;;;;;;;13.48;2.05;;;;;;;9.93;100.00;102606.34;5047527;28;20411;-65
2023/02/03 07:29:04;;;;;;;20.25;3.75;;;;;;;9.97;100.00;102601.94;5048852;28;20192;-70
2023/02/03 07:31:29;;;;;;;19.23;2.70;;;;;;;9.92;100.00;102619.50;5047569;28;20113;-67
2023/02/03 07:33:55;;;;;;;12.45;2.38;;;;;;;9.95;100.00;102603.69;5048249;28;20459;-65
2023/02/03 07:36:20;;;;;;;12.93;3.08;;;;;;;9.98;100.00;102598.44;5046999;28;20079;-68
2023/02/03 07:38:46;;;;;;;9.95;2.45;;;;;;;9.94;100.00;102613.34;5047272;28;20025;-69
2023/02/03 07:41:11;;;;;;;18.75;3.45;;;;;;;9.99;100.00;102618.59;5046850;28;20128;-72
2023/02/03 07:43:36;;;;;;;13.20;2.72;;;;;;;10.07;100.00;102601.03;5048282;28;20098;-70
2023/02/03 07:46:02;;;;;;;11.13;2.40;;;;;;;10.05;100.00;102599.31;5048093;28;20480;-71
2023/02/03 07:48:27;;;;;;;19.85;2.72;;;;;;;10.09;100.00;102622.97;5046248;28;20033;-70
2023/02/03 07:50:53;;;;;;;12.15;2.50;;;;;;;10.04;100.00;102602.78;5038888;28;20031;-63
2023/02/03 07:53:18;;;;;;;9.75;2.15;;;;;;;10.13;100.00;102591.34;5036246;28;20033;-69
2023/02/03 07:55:44;;;;;;;11.57;2.30;;;;;;;10.16;100.00;102596.59;5037543;28;20021;-70
2023/02/03 07:58:09;;;;;;;13.25;2.83;;;;;;;10.20;100.00;102608.88;5036290;28;20483;-73
2023/02/03 08:00:35;;;;;;;14.00;2.85;;;;;;;10.11;100.00;102615.06;5055800;28;20093;-66
2023/02/03 08:03:01;;;;;;;12.93;2.22;;;;;;;10.15;100.00;102627.38;5037874;28;20423;-69
2023/02/03 08:05:29;;;;;;;15.50;2.78;;;;;;;10.06;100.00;102616.84;5036072;28;20487;-67
2023/02/03 08:07:54;;;;;;;16.60;2.47;;;;;;;10.12;100.00;102632.63;5036088;28;20140;-68
2023/02/03 08:10:19;;;;;;;14.60;2.75;;;;;;;10.21;100.00;102627.31;5035765;28;20104;-68
2023/02/03 08:12:45;;;;;;;16.35;2.70;;;;;;;10.16;100.00;102634.38;5038711;28;20056;-70
2023/02/03 08:15:11;;;;;;;17.45;2.75;;;;;;;10.26;100.00;102642.25;5037333;28;20295;-70
2023/02/03 08:17:38;;;;;;;16.88;2.13;;;;;;;10.25;100.00;102651.91;5037081;28;20472;-69
2023/02/03 08:20:05;;;;;;;17.23;2.97;;;;;;;10.33;100.00;102639.56;5020423;28;20021;-66
2023/02/03 08:22:30;;;;;;;15.68;2.55;;;;;;;10.34;100.00;102651.88;5040459;28;20428;-71
2023/02/03 08:24:55;;;;;;;13.38;2.42;;;;;;;10.41;100.00;102649.22;5036021;28;20116;-70
2023/02/03 08:27:22;;;;;;;14.40;3.15;;;;;;;10.32;100.00;102682.63;5018896;28;20363;-67
2023/02/03 08:29:47;;;;;;;14.05;2.78;;;;;;;10.36;100.00;102651.88;5037088;28;20048;-67
2023/02/03 08:32:16;;;;;;;18.67;3.08;;;;;;;10.35;100.00;102639.56;5036674;28;20021;-68
2023/02/03 08:34:42;;;;;;;16.50;2.42;;;;;;;10.32;100.00;102671.19;5045067;28;20598;-67
2023/02/03 08:37:09;;;;;;;17.17;2.83;;;;;;;10.33;100.00;102646.63;5045831;28;20036;-62
2023/02/03 08:39:35;;;;;;;14.80;1.92;;;;;;;10.38;100.00;102633.44;5042725;28;20017;-70
2023/02/03 08:42:02;;;;;;;16.60;2.67;;;;;;;10.37;100.00;102650.97;5046200;28;20032;-65
2023/02/03 08:44:28;;;;;;;17.75;3.05;;;;;;;10.44;100.00;102663.25;5046714;28;20028;-66
2023/02/03 08:46:54;;;;;;;17.13;2.70;;;;;;;10.42;100.00;102656.25;5046269;28;20029;-69
2023/02/03 08:49:19;;;;;;;23.05;2.83;;;;;;;10.43;100.00;102657.97;5042878;28;20124;-69
2023/02/03 08:51:46;;;;;;;13.55;2.22;;;;;;;10.48;100.00;102657.09;5036748;28;20073;-69
2023/02/03 08:54:12;;;;;;;21.80;3.45;;;;;;;10.51;100.00;102645.69;5027419;28;20036;-72
2023/02/03 08:56:38;;;;;;;16.08;2.88;;;;;;;10.58;100.00;102667.63;5032853;28;20038;-68
2023/02/03 08:59:03;;;;;;;18.02;2.80;;;;;;;10.44;100.00;102688.72;5018963;28;20379;-70
2023/02/03 09:01:28;;;;;;;14.63;2.70;;;;;;;10.49;100.00;102693.16;5041193;28;20114;-74
2023/02/03 09:03:54;;;;;;;14.07;3.53;;;;;;;10.54;100.00;102669.38;5036136;28;20464;-59
2023/02/03 09:06:19;;;;;;;14.02;3.30;;;;;;;10.70;100.00;102664.06;5027622;28;20026;-70
2023/02/03 09:08:45;;;;;;;10.63;2.45;;;;;;;10.56;100.00;102675.53;5030642;28;20021;-71
2023/02/03 09:11:15;;;;;;;12.85;2.10;;;;;;;10.60;100.00;102692.22;5046817;28;20029;-72
2023/02/03 09:13:44;;;;;;;18.15;2.85;;;;;;;10.56;100.00;102685.19;5034400;28;20037;-71
2023/02/03 09:16:11;;;;;;;22.05;2.65;;;;;;;10.60;100.00;102694.88;5033869;28;20021;-72
2023/02/03 09:18:36;;;;;;;11.23;2.03;;;;;;;10.60;100.00;102706.25;5034883;28;20021;-71
2023/02/03 09:21:11;;;;;;;12.65;2.58;;;;;;;10.69;100.00;102693.94;5035184;28;20096;-70
2023/02/03 09:23:38;;;;;;;10.82;2.28;;;;;;;10.78;100.00;102700.94;5037052;28;20444;-69
2023/02/03 09:26:08;;;;;;;9.35;2.05;;;;;;;10.80;100.00;102685.97;5042461;28;20030;-72
2023/02/03 09:28:34;;;;;;;17.52;2.40;;;;;;;10.78;100.00;102716.75;5041561;28;20479;-71
2023/02/03 09:31:01;;;;;;;12.98;2.53;;;;;;;10.94;100.00;102701.72;5036042;28;20341;-68
2023/02/03 09:33:27;;;;;;;11.90;2.20;;;;;;;10.95;100.00;102717.53;5036659;28;20017;-65
2023/02/03 09:35:53;;;;;;;16.45;2.25;;;;;;;10.97;100.00;102710.50;5038292;28;20025;-72
2023/02/03 09:38:19;;;;;;;10.18;2.53;;;;;;;10.93;100.00;102718.44;5037578;28;20037;-69
2023/02/03 09:40:46;;;;;;;9.57;1.95;;;;;;;10.89;100.00;102700.88;5037915;28;20025;-68
2023/02/03 09:43:20;;;;;;;14.18;2.38;;;;;;;11.07;100.00;102706.03;5017868;28;20065;-68
2023/02/03 09:45:46;;;;;;;14.52;2.50;;;;;;;11.06;100.00;102706.06;5034181;28;20021;-65
2023/02/03 09:48:17;;;;;;;13.07;2.47;;;;;;;11.13;100.00;102710.41;5028654;28;20442;-68
2023/02/03 09:50:43;;;;;;;12.50;2.25;;;;;;;11.29;100.00;102712.94;5044474;28;20029;-69
2023/02/03 09:53:44;;;;;;;14.65;2.25;;;;;;;11.31;100.00;102714.69;5031971;28;20080;-68
2023/02/03 09:56:19;;;;;;;13.05;2.10;;;;;;;11.33;100.00;102726.13;5029807;28;20429;-72
2023/02/03 09:58:45;;;;;;;10.18;2.03;;;;;;;11.35;100.00;102726.13;5048456;28;20016;-70
2023/02/03 10:01:12;;;;;;;10.85;2.40;;;;;;;11.31;100.00;102730.53;5047715;28;20456;-65
2023/02/03 10:03:43;;;;;;;14.43;1.98;;;;;;;11.23;100.00;102745.53;5031358;28;20033;-66
2023/02/03 10:06:24;;;;;;;9.15;1.60;;;;;;;11.23;100.00;102756.09;5048869;28;20017;-69
2023/02/03 10:08:56;;;;;;;11.07;2.63;;;;;;;11.19;100.00;102747.31;5049119;28;20072;-69
2023/02/03 10:11:49;;;;;;;7.38;1.80;;;;;;;11.30;100.00;102736.69;5043824;28;20033;-62
2023/02/03 10:14:33;;;;;;;12.45;1.90;;;;;;;11.30;100.00;102744.63;5029526;28;20175;-70
2023/02/03 10:17:11;;;;;;;11.95;2.33;;;;;;;11.24;100.00;102757.84;5029270;28;20030;-62
2023/02/03 10:19:48;;;;;;;5.55;1.90;;;;;;;11.38;100.00;102787.66;5029522;28;20034;-68
2023/02/03 10:22:20;;;;;;;18.88;2.95;;;;;;;11.38;100.00;102752.50;5040201;28;20116;-66
2023/02/03 10:24:50;;;;;;;7.97;2.42;;;;;;;11.50;100.00;102770.88;5049621;28;20494;-72
2023/02/03 10:27:18;;;;;;;8.18;1.77;;;;;;;11.41;100.00;102744.53;5047806;28;20066;-70
2023/02/03 10:29:44;;;;;;;7.47;2.03;;;;;;;11.49;100.00;102769.13;5064615;28;20040;-70
2023/02/03 10:32:10;;;;;;;13.18;2.00;;;;;;;11.44;100.00;102760.34;5049554;28;20029;-71
2023/02/03 10:34:36;;;;;;;9.40;2.10;;;;;;;11.43;100.00;102762.97;5063836;28;20021;-62
2023/02/03 10:37:27;;;;;;;6.65;1.67;;;;;;;11.54;100.00;102782.28;5031460;28;20441;-67
2023/02/03 10:39:53;;;;;;;8.05;2.10;;;;;;;11.53;100.00;102748.84;5048316;28;20075;-63
2023/02/03 10:42:19;;;;;;;13.65;2.03;;;;;;;11.50;100.00;102796.41;5049515;28;20033;-69
2023/02/03 10:44:57;;;;;;;6.63;1.63;;;;;;;11.67;100.00;102788.34;5031708;28;20025;-64
2023/02/03 10:47:35;;;;;;;9.98;1.80;;;;;;;11.68;100.00;102784.81;5027996;28;20029;-73
2023/02/03 10:50:15;;;;;;;9.32;1.75;;;;;;;11.59;100.00;102785.75;5010943;28;20464;-71
2023/02/03 10:52:40;;;;;;;7.88;2.30;;;;;;;11.57;100.00;102803.41;5047490;28;20029;-69
2023/02/03 10:55:21;;;;;;;10.80;2.00;;;;;;;11.66;100.00;102804.22;5048915;28;20099;-68
2023/02/03 10:57:47;;;;;;;11.27;2.00;;;;;;;11.69;100.00;102780.41;5048425;28;20502;-66
2023/02/03 11:00:29;;;;;;;7.68;1.70;;;;;;;11.75;100.00;102798.88;5030597;28;20029;-69
2023/02/03 11:02:58;;;;;;;3.85;1.40;;;;;;;11.74;100.00;102805.91;5026480;28;20029;-66
2023/02/03 11:05:26;;;;;;;10.93;1.90;;;;;;;11.81;100.00;102790.00;5023925;28;20048;-70
2023/02/03 11:07:52;;;;;;;18.13;2.00;;;;;;;11.71;100.00;102802.44;5039642;28;20084;-64
2023/02/03 11:10:37;;;;;;;8.85;1.95;;;;;;;11.84;100.00;102809.38;5042791;28;20291;-64
2023/02/03 11:13:18;;;;;;;10.77;2.10;;;;;;;11.88;100.00;102803.16;5047772;28;20028;-74
2023/02/03 11:16:01;;;;;;;7.60;2.25;;;;;;;11.84;100.00;102788.25;5029420;28;20044;-67
2023/02/03 11:18:43;;;;;;;7.95;2.00;;;;;;;11.78;100.00;102827.91;5046313;28;20016;-66
2023/02/03 11:21:14;;;;;;;10.85;2.53;;;;;;;11.77;100.00;102793.56;5045413;28;20021;-60